Jupiter Point, Connecticut
Current Conditions -  °F | °C
As of 10:22 AM on Monday 24 Nov 2014 (Local Time) from KGON Reporting Station
Light Rain Light Rain  
Wind Chill: 59°   Ceiling: 700
Heat Index: 59°   Visibility: 2.5mi
Dew Point: 59°   Wind: 20mph
Humidity: 100%   Direction: 190°S
Pressure: 29.72"   Gusts: NA
Location:  41.3595°N, 72.0439°W
Report Text: KGON 241522Z 19017KT 2 1/2SM -RA BR BKN007 OVC011 15/15 A2972 RMK AO2 P0000 T01500150
Loading
Personal Weather Stations






























Interactive Weather Map New forecast layout! Learn more

10-Day Weather Forecast

Advertisements
Track Severe Weather on mobile